Guilden Sutton, United Kingdom
Current Conditions -  °F | °C
As of 10:50 AM on Friday 28 Nov 2014 (Local Time) from EGNR Reporting Station
Haze Haze  
Wind Chill: 50°   Ceiling: 1000
Heat Index: 50°   Visibility: 3mi
Dew Point: 48°   Wind: 3mph
Humidity: 94%   Direction: 330°NNW
Pressure: 29.68"   Gusts: NA
Location:  53.21°N, 2.83°W
Report Text: EGNR 281050Z 33003KT 5000 BR OVC010 10/09 Q1005
Loading
Personal Weather Stations






























Interactive Weather Map New forecast layout! Learn more

10-Day Weather Forecast

Advertisements
Track Severe Weather on mobile